createdAt,value
2023-04-17T00:01:31.672Z,22.97
2023-04-17T00:04:03.556Z,29.30
2023-04-17T00:06:35.289Z,23.80
2023-04-17T00:09:06.987Z,23.30
2023-04-17T00:11:38.598Z,25.17
2023-04-17T00:14:09.895Z,26.00
2023-04-17T00:16:41.309Z,22.63
2023-04-17T00:19:12.869Z,27.10
2023-04-17T00:21:44.388Z,28.37
2023-04-17T00:24:15.622Z,27.07
2023-04-17T00:26:46.898Z,27.03
2023-04-17T00:29:18.153Z,27.90
2023-04-17T00:31:49.513Z,24.37
2023-04-17T00:34:20.896Z,26.57
2023-04-17T00:36:52.236Z,22.40
2023-04-17T00:39:23.488Z,30.07
2023-04-17T00:41:54.816Z,31.47
2023-04-17T00:44:26.432Z,28.27
2023-04-17T00:46:57.858Z,28.37
2023-04-17T00:49:29.461Z,25.63
2023-04-17T00:52:01.405Z,25.47
2023-04-17T00:54:33.067Z,28.73
2023-04-17T00:57:04.427Z,29.50
2023-04-17T00:59:37.274Z,22.53
2023-04-17T01:02:08.717Z,24.53
2023-04-17T01:04:40.382Z,26.03
2023-04-17T01:07:11.707Z,26.03
2023-04-17T01:09:43.078Z,30.40
2023-04-17T01:12:22.336Z,31.53
2023-04-17T01:14:55.404Z,33.33
2023-04-17T01:17:27.757Z,32.30
2023-04-17T01:19:59.156Z,29.43
2023-04-17T01:22:30.665Z,30.47
2023-04-17T01:25:02.246Z,32.73
2023-04-17T01:27:35.106Z,30.40
2023-04-17T01:30:07.087Z,27.07
2023-04-17T01:32:38.416Z,26.03
2023-04-17T01:35:10.595Z,30.33
2023-04-17T01:37:41.968Z,28.20
2023-04-17T01:40:13.575Z,25.83
2023-04-17T01:42:44.983Z,35.20
2023-04-17T01:45:16.415Z,28.67
2023-04-17T01:47:47.799Z,26.53
2023-04-17T01:50:19.234Z,30.40
2023-04-17T01:52:50.567Z,27.77
2023-04-17T01:55:21.818Z,30.33
2023-04-17T01:57:53.242Z,27.60
2023-04-17T02:00:24.636Z,26.23
2023-04-17T02:02:56.000Z,31.73
2023-04-17T02:05:27.447Z,31.33
2023-04-17T02:07:58.792Z,26.30
2023-04-17T02:10:30.578Z,25.03
2023-04-17T02:13:01.872Z,24.13
2023-04-17T02:15:33.167Z,28.30
2023-04-17T02:18:08.039Z,32.23
2023-04-17T02:20:39.430Z,27.03
2023-04-17T02:23:10.975Z,27.27
2023-04-17T02:25:42.222Z,29.60
2023-04-17T02:28:13.569Z,30.40
2023-04-17T02:30:45.754Z,26.73
2023-04-17T02:33:17.438Z,28.27
2023-04-17T02:35:48.981Z,40.97
2023-04-17T02:38:20.227Z,27.27
2023-04-17T02:40:51.506Z,29.53
2023-04-17T02:43:22.804Z,24.00
2023-04-17T02:45:54.097Z,28.10
2023-04-17T02:48:25.442Z,30.43
2023-04-17T02:50:56.794Z,29.10
2023-04-17T02:53:28.044Z,27.27
2023-04-17T02:55:59.335Z,26.90
2023-04-17T02:58:30.950Z,24.77
2023-04-17T03:01:03.231Z,25.60
2023-04-17T03:03:34.938Z,33.03
2023-04-17T03:06:08.897Z,33.20
2023-04-17T03:08:40.162Z,25.47
2023-04-17T03:11:11.500Z,28.73
2023-04-17T03:13:43.387Z,27.00
2023-04-17T03:16:14.937Z,26.50
2023-04-17T03:18:46.252Z,29.53
2023-04-17T03:21:17.589Z,28.03
2023-04-17T03:23:48.856Z,26.97
2023-04-17T03:26:20.492Z,27.57
2023-04-17T03:28:51.782Z,29.60
2023-04-17T03:31:24.481Z,26.30
2023-04-17T03:33:55.899Z,27.37
2023-04-17T03:36:28.142Z,26.43
2023-04-17T03:38:59.466Z,25.93
2023-04-17T03:41:30.734Z,25.63
2023-04-17T03:44:02.082Z,28.83
2023-04-17T03:46:33.434Z,32.27
2023-04-17T03:49:05.043Z,35.57
2023-04-17T03:51:36.350Z,27.97
2023-04-17T03:54:07.630Z,27.17
2023-04-17T03:56:38.911Z,28.60
2023-04-17T03:59:10.338Z,22.03
2023-04-17T04:01:43.762Z,27.00
2023-04-17T04:04:16.179Z,24.63
2023-04-17T04:06:49.290Z,25.60
2023-04-17T04:09:21.212Z,26.90
2023-04-17T04:11:53.348Z,26.20
2023-04-17T04:14:24.614Z,27.67
2023-04-17T04:16:56.077Z,26.50
2023-04-17T04:19:27.424Z,29.67
2023-04-17T04:21:58.776Z,25.77
2023-04-17T04:24:30.392Z,26.87
2023-04-17T04:27:04.424Z,24.40
2023-04-17T04:29:37.554Z,30.17
2023-04-17T04:32:09.640Z,27.33
2023-04-17T04:34:42.001Z,26.03
2023-04-17T04:37:15.262Z,29.83
2023-04-17T04:39:47.840Z,25.43
2023-04-17T04:42:22.290Z,25.70
2023-04-17T04:44:53.791Z,26.07
2023-04-17T04:47:25.714Z,26.10
2023-04-17T04:49:57.049Z,30.73
2023-04-17T04:52:28.344Z,29.03
2023-04-17T04:54:59.712Z,31.97
2023-04-17T04:57:31.174Z,28.40
2023-04-17T05:00:06.205Z,28.63
2023-04-17T05:02:37.676Z,27.07
2023-04-17T05:05:10.855Z,28.17
2023-04-17T05:07:42.179Z,28.93
2023-04-17T05:10:13.665Z,34.50
2023-04-17T05:12:44.931Z,30.37
2023-04-17T05:15:16.176Z,30.73
2023-04-17T05:17:47.834Z,32.27
2023-04-17T05:20:19.348Z,31.67
2023-04-17T05:22:50.634Z,36.40
2023-04-17T05:25:22.515Z,37.17
2023-04-17T05:27:53.868Z,33.37
2023-04-17T05:30:25.251Z,39.40
2023-04-17T05:32:56.611Z,41.30
2023-04-17T05:35:28.273Z,36.80
2023-04-17T05:37:59.535Z,37.37
2023-04-17T05:40:30.851Z,36.80
2023-04-17T05:43:09.200Z,39.80
2023-04-17T05:45:41.703Z,43.67
2023-04-17T05:48:13.048Z,35.50
2023-04-17T05:50:44.440Z,35.53
2023-04-17T05:53:15.891Z,43.23
2023-04-17T05:55:47.230Z,33.90
2023-04-17T05:58:23.552Z,34.63
2023-04-17T06:00:56.745Z,37.73
2023-04-17T06:03:28.219Z,37.73
2023-04-17T06:05:59.786Z,36.77
2023-04-17T06:08:31.242Z,36.03
2023-04-17T06:11:02.544Z,33.13
2023-04-17T06:13:33.823Z,36.13
2023-04-17T06:16:05.565Z,38.50
2023-04-17T06:18:36.864Z,31.43
2023-04-17T06:21:08.376Z,34.63
2023-04-17T06:23:39.638Z,33.67
2023-04-17T06:26:12.171Z,33.67
2023-04-17T06:28:43.516Z,33.40
2023-04-17T06:31:14.927Z,33.87
2023-04-17T06:33:47.658Z,35.17
2023-04-17T06:36:18.912Z,29.87
2023-04-17T06:38:50.484Z,31.83
2023-04-17T06:41:22.355Z,30.53
2023-04-17T06:43:53.634Z,28.90
2023-04-17T06:46:25.028Z,32.97
2023-04-17T06:48:59.356Z,31.30
2023-04-17T06:51:30.700Z,31.53
2023-04-17T06:54:02.152Z,27.23
2023-04-17T06:56:33.461Z,24.47
2023-04-17T06:59:04.769Z,27.63
2023-04-17T07:01:37.980Z,29.63
2023-04-17T07:04:10.754Z,25.77
2023-04-17T07:06:42.203Z,24.83
2023-04-17T07:09:13.567Z,23.60
2023-04-17T07:11:44.920Z,23.87
2023-04-17T07:14:16.463Z,22.30
2023-04-17T07:16:47.926Z,19.70
2023-04-17T07:19:19.638Z,23.83
2023-04-17T07:21:50.904Z,21.03
2023-04-17T07:24:22.417Z,15.60
2023-04-17T07:26:53.787Z,14.13
2023-04-17T07:29:25.084Z,15.07
2023-04-17T07:31:56.545Z,12.73
2023-04-17T07:34:31.034Z,14.93
2023-04-17T07:37:02.303Z,13.37
2023-04-17T07:39:33.566Z,20.70
2023-04-17T07:42:07.226Z,15.07
2023-04-17T07:44:39.073Z,15.03
2023-04-17T07:47:10.491Z,14.10
2023-04-17T07:49:41.935Z,14.30
2023-04-17T07:52:15.142Z,16.70
2023-04-17T07:54:46.571Z,14.47
2023-04-17T07:57:18.438Z,15.60
2023-04-17T07:59:49.711Z,11.93
2023-04-17T08:02:22.157Z,13.90
2023-04-17T08:04:55.291Z,12.63
2023-04-17T08:07:27.000Z,14.57
2023-04-17T08:09:58.286Z,11.87
2023-04-17T08:12:29.650Z,14.93
2023-04-17T08:15:00.958Z,13.93
2023-04-17T08:17:33.768Z,11.33
2023-04-17T08:20:11.094Z,14.17
2023-04-17T08:22:44.421Z,11.33
2023-04-17T08:25:16.102Z,12.70
2023-04-17T08:27:47.543Z,9.60
2023-04-17T08:30:20.135Z,11.63
2023-04-17T08:32:52.211Z,10.97
2023-04-17T08:35:23.785Z,10.47
2023-04-17T08:37:58.632Z,12.70
2023-04-17T08:40:30.059Z,13.53
2023-04-17T08:43:02.030Z,15.40
2023-04-17T08:45:37.262Z,16.60
2023-04-17T08:48:08.708Z,13.32
2023-04-17T08:50:42.199Z,14.03
2023-04-17T08:53:13.463Z,11.27
2023-04-17T08:55:46.405Z,15.77
2023-04-17T08:58:17.822Z,11.97
2023-04-17T09:00:49.297Z,12.47
2023-04-17T09:03:21.569Z,17.07
2023-04-17T09:05:57.107Z,14.80
2023-04-17T09:08:29.127Z,13.90
2023-04-17T09:11:00.465Z,19.63
2023-04-17T09:13:40.105Z,15.47
2023-04-17T09:16:13.280Z,19.07
2023-04-17T09:18:46.021Z,17.37
2023-04-17T09:21:18.723Z,17.93
2023-04-17T09:23:50.174Z,23.43
2023-04-17T09:26:23.123Z,13.30
2023-04-17T09:29:04.936Z,12.37
2023-04-17T09:31:38.894Z,15.90
2023-04-17T09:34:13.867Z,15.63
2023-04-17T09:36:45.389Z,14.73
2023-04-17T09:39:20.377Z,16.27
2023-04-17T09:42:03.592Z,15.67
2023-04-17T09:44:36.753Z,15.80
2023-04-17T09:47:09.659Z,14.73
2023-04-17T09:49:55.744Z,14.20
2023-04-17T09:52:28.594Z,18.20
2023-04-17T09:55:06.874Z,14.87
2023-04-17T09:57:38.448Z,15.85
2023-04-17T10:00:14.608Z,14.02
2023-04-17T10:02:49.238Z,13.45
2023-04-17T10:05:22.443Z,14.95
2023-04-17T10:07:53.765Z,14.85
2023-04-17T10:10:33.670Z,14.68
2023-04-17T10:13:11.154Z,15.57
2023-04-17T10:15:46.111Z,18.50
2023-04-17T10:18:24.994Z,11.18
2023-04-17T10:20:57.050Z,9.90
2023-04-17T10:23:33.934Z,15.27
2023-04-17T10:26:26.983Z,10.82
2023-04-17T10:28:58.276Z,12.60
2023-04-17T10:32:13.965Z,14.32
2023-04-17T10:34:46.296Z,11.15
2023-04-17T10:37:18.842Z,11.95
2023-04-17T10:39:56.489Z,10.50
2023-04-17T10:42:32.619Z,8.77
2023-04-17T10:45:17.496Z,10.87
2023-04-17T10:47:58.288Z,10.00
2023-04-17T10:50:29.718Z,8.77
2023-04-17T10:53:01.285Z,9.10
2023-04-17T10:55:32.678Z,10.05
2023-04-17T10:58:12.984Z,8.93
2023-04-17T11:00:52.021Z,7.05
2023-04-17T11:03:23.892Z,9.85
2023-04-17T11:05:55.667Z,7.10
2023-04-17T11:08:26.952Z,8.75
2023-04-17T11:10:58.272Z,8.00
2023-04-17T11:13:33.720Z,9.35
2023-04-17T11:16:05.326Z,8.40
2023-04-17T11:18:37.766Z,8.32
2023-04-17T11:21:13.507Z,10.20
2023-04-17T11:23:52.205Z,9.50
2023-04-17T11:26:23.501Z,9.77
2023-04-17T11:28:54.780Z,12.73
2023-04-17T11:31:26.495Z,8.30
2023-04-17T11:33:58.397Z,10.03
2023-04-17T11:36:29.688Z,10.67
2023-04-17T11:39:01.344Z,9.63
2023-04-17T11:41:39.405Z,9.93
2023-04-17T11:44:14.853Z,7.30
2023-04-17T11:46:53.846Z,9.75
2023-04-17T11:49:26.408Z,11.73
2023-04-17T11:52:01.318Z,11.87
2023-04-17T11:54:37.484Z,11.20
2023-04-17T11:57:13.636Z,8.70
2023-04-17T11:59:46.036Z,9.73
2023-04-17T12:02:17.819Z,10.40
2023-04-17T12:04:49.498Z,9.90
2023-04-17T12:07:23.858Z,5.33
2023-04-17T12:09:58.927Z,7.60
2023-04-17T12:12:31.007Z,8.93
2023-04-17T12:15:03.342Z,8.23
2023-04-17T12:17:34.660Z,11.43
2023-04-17T12:20:06.490Z,11.63
2023-04-17T12:22:37.725Z,12.23
2023-04-17T12:25:09.124Z,11.17
2023-04-17T12:27:40.661Z,13.37
2023-04-17T12:30:12.741Z,10.80
2023-04-17T12:32:48.533Z,9.47
2023-04-17T12:35:21.337Z,9.20
2023-04-17T12:37:52.657Z,7.90
2023-04-17T12:40:25.034Z,11.17
2023-04-17T12:42:56.419Z,7.47
2023-04-17T12:45:28.121Z,8.90
2023-04-17T12:47:59.462Z,8.33
2023-04-17T12:50:31.145Z,9.63
2023-04-17T12:53:02.411Z,7.60
2023-04-17T12:55:33.938Z,8.27
2023-04-17T12:58:09.968Z,7.13
2023-04-17T13:03:15.995Z,8.60
2023-04-17T13:05:53.016Z,8.13
2023-04-17T13:08:24.301Z,6.03
2023-04-17T13:10:56.287Z,11.53
2023-04-17T13:13:27.593Z,8.00
2023-04-17T13:15:58.889Z,8.50
2023-04-17T13:18:30.582Z,7.43
2023-04-17T13:21:01.958Z,8.30
2023-04-17T13:23:33.265Z,8.30
2023-04-17T13:26:04.716Z,6.90
2023-04-17T13:28:35.978Z,9.90
2023-04-17T13:31:07.394Z,11.13
2023-04-17T13:33:40.216Z,7.20
2023-04-17T13:36:11.870Z,8.67
2023-04-17T13:38:43.149Z,7.07
2023-04-17T13:41:14.446Z,13.73
2023-04-17T13:43:45.702Z,7.67
2023-04-17T13:46:17.110Z,10.27
2023-04-17T13:48:48.392Z,7.33
2023-04-17T13:51:19.661Z,9.00
2023-04-17T13:53:51.082Z,8.53
2023-04-17T13:56:23.431Z,9.50
2023-04-17T13:58:55.421Z,11.07
2023-04-17T14:01:26.710Z,7.43
2023-04-17T14:04:00.651Z,9.20
2023-04-17T14:06:33.475Z,6.37
2023-04-17T14:09:05.766Z,8.23
2023-04-17T14:11:37.032Z,7.77
2023-04-17T14:14:08.348Z,9.40
2023-04-17T14:16:40.853Z,10.70
2023-04-17T14:19:14.774Z,6.83
2023-04-17T14:21:46.474Z,7.23
2023-04-17T14:24:17.940Z,7.00
2023-04-17T14:26:49.230Z,6.37
2023-04-17T14:29:21.148Z,8.10
2023-04-17T14:31:53.020Z,9.33
2023-04-17T14:34:24.538Z,7.40
2023-04-17T14:36:58.042Z,7.00
2023-04-17T14:39:31.489Z,8.20
2023-04-17T14:42:03.077Z,8.87
2023-04-17T14:44:34.350Z,7.50
2023-04-17T14:47:05.943Z,6.13
2023-04-17T14:49:37.396Z,4.77
2023-04-17T14:52:08.665Z,5.47
2023-04-17T14:54:40.113Z,9.83
2023-04-17T14:57:11.776Z,7.40
2023-04-17T14:59:44.362Z,8.50
2023-04-17T15:02:15.739Z,7.27
2023-04-17T15:04:48.781Z,9.40
2023-04-17T15:07:20.658Z,5.07
2023-04-17T15:09:51.934Z,8.00
2023-04-17T15:12:23.247Z,6.27
2023-04-17T15:14:56.290Z,6.83
2023-04-17T15:17:27.661Z,7.07
2023-04-17T15:20:00.667Z,4.90
2023-04-17T15:22:32.463Z,5.10
2023-04-17T15:25:04.055Z,8.87
2023-04-17T15:27:35.304Z,7.97
2023-04-17T15:30:08.832Z,8.77
2023-04-17T15:32:41.469Z,9.40
2023-04-17T15:35:12.924Z,7.40
2023-04-17T15:37:44.202Z,7.57
2023-04-17T15:40:16.330Z,5.83
2023-04-17T15:42:47.619Z,6.47
2023-04-17T15:45:18.967Z,4.40
2023-04-17T15:47:50.421Z,7.33
2023-04-17T15:50:21.755Z,5.50
2023-04-17T15:52:53.057Z,5.07
2023-04-17T15:55:24.324Z,6.80
2023-04-17T15:57:55.891Z,7.77
2023-04-17T16:00:27.274Z,6.77
2023-04-17T16:02:58.718Z,13.50
2023-04-17T16:05:30.371Z,10.00
2023-04-17T16:08:01.807Z,7.97
2023-04-17T16:10:34.667Z,8.63
2023-04-17T16:13:05.942Z,9.07
2023-04-17T16:15:37.227Z,13.43
2023-04-17T16:18:08.793Z,9.70
2023-04-17T16:20:40.176Z,9.87
2023-04-17T16:23:11.687Z,9.73
2023-04-17T16:25:42.959Z,9.60
2023-04-17T16:28:14.232Z,10.17
2023-04-17T16:30:45.595Z,9.77
2023-04-17T16:33:16.843Z,9.80
2023-04-17T16:35:48.096Z,10.77
2023-04-17T16:38:19.395Z,7.60
2023-04-17T16:40:53.389Z,10.70
2023-04-17T16:43:26.533Z,10.50
2023-04-17T16:45:58.519Z,12.73
2023-04-17T16:48:31.033Z,9.63
2023-04-17T16:51:04.804Z,11.20
2023-04-17T16:53:36.174Z,10.63
2023-04-17T16:56:07.804Z,6.53
2023-04-17T16:58:39.081Z,10.87
2023-04-17T17:01:10.609Z,9.40
2023-04-17T17:03:43.137Z,7.20
2023-04-17T17:06:14.749Z,10.30
2023-04-17T17:08:46.793Z,8.97
2023-04-17T17:11:19.424Z,11.67
2023-04-17T17:13:53.005Z,8.70
2023-04-17T17:16:24.443Z,11.73
2023-04-17T17:18:56.246Z,14.13
2023-04-17T17:21:28.565Z,9.60
2023-04-17T17:24:00.487Z,9.43
2023-04-17T17:26:31.858Z,8.33
2023-04-17T17:29:03.338Z,9.97
2023-04-17T17:31:34.682Z,10.13
2023-04-17T17:34:22.660Z,13.70
2023-04-17T17:36:58.299Z,8.57
2023-04-17T17:39:29.555Z,8.90
2023-04-17T17:42:02.883Z,8.30
2023-04-17T17:44:35.111Z,7.30
2023-04-17T17:47:07.867Z,8.23
2023-04-17T17:49:39.500Z,7.67
2023-04-17T17:52:10.974Z,9.27
2023-04-17T17:54:42.670Z,7.53
2023-04-17T17:57:13.958Z,8.13
2023-04-17T17:59:45.343Z,8.80
2023-04-17T18:02:16.790Z,10.83
2023-04-17T18:04:48.212Z,9.17
2023-04-17T18:07:19.693Z,9.33
2023-04-17T18:09:51.106Z,6.70
2023-04-17T18:12:22.427Z,7.63
2023-04-17T18:14:53.923Z,10.77
2023-04-17T18:17:25.230Z,5.57
2023-04-17T18:19:56.523Z,6.90
2023-04-17T18:22:27.831Z,9.63
2023-04-17T18:24:59.105Z,7.10
2023-04-17T18:27:30.914Z,7.87
2023-04-17T18:30:06.774Z,6.90
2023-04-17T18:32:38.050Z,10.65
2023-04-17T18:35:09.595Z,9.30
2023-04-17T18:37:43.218Z,6.53
2023-04-17T18:40:14.606Z,7.43
2023-04-17T18:42:45.940Z,6.00
2023-04-17T18:45:17.443Z,10.07
2023-04-17T18:47:48.764Z,8.83
2023-04-17T18:50:20.304Z,8.20
2023-04-17T18:52:51.590Z,8.60
2023-04-17T18:55:22.872Z,8.73
2023-04-17T18:57:54.182Z,9.97
2023-04-17T19:00:25.642Z,6.60
2023-04-17T19:02:57.334Z,8.80
2023-04-17T19:05:28.741Z,7.63
2023-04-17T19:08:00.233Z,5.97
2023-04-17T19:10:31.539Z,8.70
2023-04-17T19:13:05.230Z,7.80
2023-04-17T19:15:36.540Z,9.13
2023-04-17T19:18:08.969Z,7.60
2023-04-17T19:20:42.323Z,7.33
2023-04-17T19:23:14.031Z,9.60
2023-04-17T19:25:50.561Z,8.83
2023-04-17T19:28:25.293Z,11.37
2023-04-17T19:30:57.776Z,7.17
2023-04-17T19:33:29.267Z,8.40
2023-04-17T19:36:03.063Z,8.10
2023-04-17T19:38:34.397Z,6.50
2023-04-17T19:41:11.885Z,7.77
2023-04-17T19:43:51.075Z,8.23
2023-04-17T19:46:24.366Z,8.40
2023-04-17T19:48:55.952Z,9.93
2023-04-17T19:51:32.185Z,11.67
2023-04-17T19:56:34.891Z,13.20
2023-04-17T19:59:06.283Z,9.70
2023-04-17T20:01:37.937Z,7.77
2023-04-17T20:04:09.300Z,11.00
2023-04-17T20:06:40.872Z,9.27
2023-04-17T20:09:14.550Z,9.10
2023-04-17T20:11:46.302Z,12.13
2023-04-17T20:14:19.482Z,10.20
2023-04-17T20:16:51.223Z,9.10
2023-04-17T20:19:23.162Z,11.47
2023-04-17T20:21:54.439Z,10.80
2023-04-17T20:24:25.803Z,10.13
2023-04-17T20:26:58.046Z,12.37
2023-04-17T20:29:30.997Z,12.37
2023-04-17T20:32:03.883Z,11.37
2023-04-17T20:34:35.521Z,10.20
2023-04-17T20:37:06.842Z,10.07
2023-04-17T20:39:39.221Z,11.47
2023-04-17T20:42:10.695Z,13.80
2023-04-17T20:44:41.944Z,14.50
2023-04-17T20:47:13.207Z,10.63
2023-04-17T20:49:44.480Z,10.67
2023-04-17T20:52:15.713Z,15.67
2023-04-17T20:54:47.080Z,13.00
2023-04-17T20:57:18.344Z,12.23
2023-04-17T20:59:49.602Z,13.73
2023-04-17T21:02:21.908Z,10.03
2023-04-17T21:04:53.303Z,16.20
2023-04-17T21:07:24.600Z,13.27
2023-04-17T21:09:55.960Z,11.80
2023-04-17T21:12:27.222Z,11.07
2023-04-17T21:14:58.504Z,13.60
2023-04-17T21:17:29.808Z,8.60
2023-04-17T21:20:01.151Z,12.97
2023-04-17T21:22:32.562Z,16.17
2023-04-17T21:25:04.300Z,9.80
2023-04-17T21:27:35.656Z,11.07
2023-04-17T21:30:08.056Z,12.13
2023-04-17T21:32:40.266Z,9.07
2023-04-17T21:35:11.592Z,10.03
2023-04-17T21:37:42.915Z,10.67
2023-04-17T21:40:14.324Z,9.23
2023-04-17T21:42:45.726Z,11.00
2023-04-17T21:45:17.044Z,11.53
2023-04-17T21:47:48.499Z,11.13
2023-04-17T21:50:19.918Z,12.30
2023-04-17T21:52:51.187Z,17.47
2023-04-17T21:55:22.475Z,11.40
2023-04-17T21:57:53.736Z,12.57
2023-04-17T22:00:25.350Z,14.57
2023-04-17T22:02:56.761Z,13.67
2023-04-17T22:05:32.449Z,11.93
2023-04-17T22:08:03.723Z,14.70
2023-04-17T22:10:35.491Z,12.83
2023-04-17T22:13:06.868Z,9.73
2023-04-17T22:15:38.379Z,11.23
2023-04-17T22:18:09.691Z,11.77
2023-04-17T22:20:41.048Z,9.93
2023-04-17T22:23:12.317Z,11.57
2023-04-17T22:25:43.646Z,12.67
2023-04-17T22:28:14.904Z,9.77
2023-04-17T22:30:49.725Z,8.83
2023-04-17T22:33:21.071Z,10.70
2023-04-17T22:35:52.436Z,5.60
2023-04-17T22:38:23.714Z,9.10
2023-04-17T22:40:55.186Z,6.87
2023-04-17T22:43:26.461Z,9.70
2023-04-17T22:45:57.783Z,8.20
2023-04-17T22:48:29.075Z,6.80
2023-04-17T22:51:01.005Z,6.10
2023-04-17T22:53:33.379Z,7.43
2023-04-17T22:56:05.824Z,4.83
2023-04-17T22:58:37.092Z,5.57
2023-04-17T23:01:08.476Z,5.30
2023-04-17T23:03:39.863Z,5.57
2023-04-17T23:06:11.477Z,6.03
2023-04-17T23:08:42.770Z,5.40
2023-04-17T23:11:14.046Z,4.90
2023-04-17T23:13:45.419Z,6.07
2023-04-17T23:16:17.864Z,6.37
2023-04-17T23:18:49.258Z,6.20
2023-04-17T23:21:20.797Z,5.17
2023-04-17T23:23:52.238Z,6.40
2023-04-17T23:26:23.651Z,4.80
2023-04-17T23:28:54.986Z,5.67
2023-04-17T23:31:26.290Z,7.03
2023-04-17T23:33:57.620Z,5.83
2023-04-17T23:36:28.886Z,11.63
2023-04-17T23:39:00.285Z,10.47
2023-04-17T23:41:33.543Z,12.03
2023-04-17T23:44:05.006Z,20.30
2023-04-17T23:46:36.823Z,12.53
2023-04-17T23:49:08.576Z,14.23
2023-04-17T23:51:39.868Z,13.50
2023-04-17T23:54:11.547Z,12.37
2023-04-17T23:56:45.863Z,14.30
2023-04-17T23:59:17.221Z,15.17
